Buoy 46566

sailwx.info

Track history (hours):
 
Tides and Currents Weather Stations Pressure Air Temp Water Temp Dewpoint Dewpoint Depression Visibility Wind Speed Wind Dir Waves Ship Positions

Liao Sui Yu 46566

Last reported at 2018-Jan-20 07:00 UTC. Time now 2018-Jan-20 09:00 UTC.
Position N 33°59' W 140°54'.

Length 30 m.

Type: Fishing. MMSI: 412052352.

Date/timePositionNaut miles runAvg speedWind from/ knotsBaromVisibWave heightAir tempDewpointWater temp
2018-Jan-20 07:00N 33°59' W 140°54'1 0.6
2018-Jan-20 06:00N 34°00' W 140°54'0 0.0
2018-Jan-20 05:00N 34°00' W 140°54'1 0.6
2018-Jan-20 04:00N 34°01' W 140°54'0 0.5
2018-Jan-20 03:00N 34°01' W 140°53'0 0.0
2018-Jan-20 02:00N 34°01' W 140°53'0 0.0
2018-Jan-20 01:00N 34°01' W 140°53'1 0.6
2018-Jan-20 00:00N 34°01' W 140°53'0 0.0
2018-Jan-19 23:00N 34°01' W 140°53'1 0.4
2018-Jan-19 20:00N 34°02' W 140°53'0 0.0
2018-Jan-19 19:00N 34°02' W 140°53'1 1.2
2018-Jan-19 18:00N 34°03' W 140°52'1 0.6
2018-Jan-19 17:00N 34°04' W 140°52'0 0.0
2018-Jan-19 16:00N 34°04' W 140°52'0 0.5
2018-Jan-19 15:00N 34°04' W 140°51'1 1.2
2018-Jan-19 14:00N 34°05' W 140°51'1 1.2
2018-Jan-19 13:00N 34°06' W 140°51'4 4.3
2018-Jan-19 12:00N 34°10' W 140°52'0 0.0
2018-Jan-19 07:00N 34°10' W 140°52'1 1.2
2018-Jan-19 06:00N 34°11' W 140°52'2 1.0
2018-Jan-19 04:00N 34°13' W 140°53'1 0.8
2018-Jan-19 03:00N 34°14' W 140°54'2 1.6
2018-Jan-19 02:00N 34°15' W 140°55'2 2.1
2018-Jan-19 01:00N 34°16' W 140°58'0 0.0
2018-Jan-19 00:00N 34°16' W 140°58'0 0.0
2018-Jan-18 23:00N 34°16' W 140°58'2 0.8
2018-Jan-18 20:00N 34°17' W 141°00'1 1.2
2018-Jan-18 19:00N 34°18' W 141°00'0 0.0
2018-Jan-18 18:00N 34°18' W 141°00'2 0.8
2018-Jan-18 16:00N 34°19' W 141°02'1 1.2
2018-Jan-18 15:00N 34°20' W 141°02'0 0.5
2018-Jan-18 14:00N 34°20' W 141°02'2 1.6
2018-Jan-18 13:00N 34°21' W 141°04'5 4.6
2018-Jan-18 12:00N 34°23' W 141°08'1 0.3
2018-Jan-18 07:00N 34°25' W 141°08'1 0.8
2018-Jan-18 06:00N 34°25' W 141°08'2 1.6
2018-Jan-18 05:00N 34°26' W 141°10'2 1.9
2018-Jan-18 04:00N 34°27' W 141°12'1 0.8
2018-Jan-18 03:00N 34°28' W 141°13'4 4.0
2018-Jan-18 02:00N 34°28' W 141°17'0 0.0
2018-Jan-18 01:00N 34°28' W 141°17'4 4.5
2018-Jan-18 00:00N 34°28' W 141°23'0 0.0
2018-Jan-17 23:00N 34°28' W 141°23'1 0.3
2018-Jan-17 19:00N 34°26' W 141°23'1 0.8
2018-Jan-17 18:00N 34°27' W 141°23'1 0.8
2018-Jan-17 17:00N 34°26' W 141°24'1 0.8
2018-Jan-17 16:00N 34°27' W 141°25'0 0.0
2018-Jan-17 15:00N 34°27' W 141°25'1 0.8
2018-Jan-17 14:00N 34°28' W 141°24'1010.3
2018-Jan-17 13:00N 34°32' W 141°35'8 8.0
2018-Jan-17 12:00N 34°29' W 141°26'8 1.6
2018-Jan-17 07:00N 34°32' W 141°35'2 2.5
2018-Jan-17 06:00N 34°32' W 141°38'1 0.8
2018-Jan-17 05:00N 34°31' W 141°39'1 1.5
2018-Jan-17 04:00N 34°31' W 141°41'2 2.3
2018-Jan-17 03:00N 34°29' W 141°43'1 0.6
2018-Jan-17 02:00N 34°30' W 141°43'6 2.9
2018-Jan-17 00:00N 34°26' W 141°48'0 0.0
2018-Jan-16 20:00N 34°26' W 141°48'12 0.9
2018-Jan-16 07:00N 34°18' W 141°58'0 0.0
2018-Jan-16 06:00N 34°18' W 141°58'0 0.0
2018-Jan-16 05:00N 34°18' W 141°58'1 1.0
2018-Jan-16 04:00N 34°18' W 141°59'0 0.0
2018-Jan-16 03:00N 34°18' W 141°59'3 2.5
2018-Jan-16 02:00N 34°19' W 142°02'0 0.0
2018-Jan-16 00:00N 34°19' W 142°02'3 3.5
2018-Jan-15 23:00N 34°17' W 142°05'1 0.3
2018-Jan-15 20:00N 34°16' W 142°06'1 0.3
2018-Jan-15 16:00N 34°16' W 142°07'0 0.5
2018-Jan-15 15:00N 34°16' W 142°08'0 0.0
2018-Jan-15 14:00N 34°16' W 142°08'6 6.0
2018-Jan-15 13:00N 34°18' W 142°14'4 3.9
2018-Jan-15 12:00N 34°16' W 142°10'4 0.7
2018-Jan-15 06:00N 34°18' W 142°15'2 1.6
2018-Jan-15 05:00N 34°19' W 142°17'0 0.0
2018-Jan-15 04:00N 34°19' W 142°17'1 0.8
2018-Jan-15 03:00N 34°19' W 142°17'1 1.5
2018-Jan-15 02:00N 34°19' W 142°19'0 0.0
2018-Jan-15 01:00N 34°19' W 142°19'2 2.1
2018-Jan-15 00:00N 34°20' W 142°22'0 0.0
2018-Jan-14 23:00N 34°20' W 142°22'1 1.5
2018-Jan-14 22:00N 34°20' W 142°23'1 0.4
2018-Jan-14 20:00N 34°19' W 142°24'0 0.0
2018-Jan-14 19:00N 34°19' W 142°24'1 1.2
2018-Jan-14 18:00N 34°20' W 142°23'3 3.1
2018-Jan-14 17:00N 34°18' W 142°26'1 1.2
2018-Jan-14 16:00N 34°17' W 142°27'0 0.0
2018-Jan-14 15:00N 34°17' W 142°27'0 0.5
2018-Jan-14 14:00N 34°17' W 142°28'6 6.2
2018-Jan-14 13:00N 34°14' W 142°34'0 0.0
2018-Jan-14 12:00N 34°14' W 142°34'0 0.0
2018-Jan-14 07:00N 34°14' W 142°34'1 1.2
2018-Jan-14 06:00N 34°14' W 142°35'1 1.2
2018-Jan-14 05:00N 34°13' W 142°37'0 0.0
2018-Jan-14 04:00N 34°13' W 142°37'0 0.0
2018-Jan-14 03:00N 34°13' W 142°37'1 0.8
2018-Jan-14 02:00N 34°13' W 142°37'0 0.0
2018-Jan-14 01:00N 34°13' W 142°37'1 0.8
2018-Jan-14 00:00N 34°13' W 142°38'0 0.0
2018-Jan-13 23:00N 34°13' W 142°38'22 0.7
2018-Jan-12 15:00N 33°55' W 142°52'2 1.8
2018-Jan-12 14:00N 33°53' W 142°52'0 0.0
2018-Jan-12 13:00N 33°53' W 142°52'2 1.9
2018-Jan-12 12:00N 33°52' W 142°53'0 0.0
2018-Jan-12 11:00N 33°52' W 142°53'0 0.0
2018-Jan-12 08:00N 33°52' W 142°53'0 0.5
2018-Jan-12 07:00N 33°52' W 142°54'1 0.8
2018-Jan-12 06:00N 33°51' W 142°55'1 0.8
2018-Jan-12 05:00N 33°50' W 142°55'1 0.8
2018-Jan-12 04:00N 33°50' W 142°56'1 1.3
2018-Jan-12 03:00N 33°49' W 142°55'1 1.2
2018-Jan-12 02:00N 33°48' W 142°56'0 0.0
2018-Jan-12 01:00N 33°48' W 142°56'1 1.2
2018-Jan-12 00:00N 33°47' W 142°56'0 0.0
2018-Jan-11 23:00N 33°47' W 142°56'2 0.6
2018-Jan-11 20:00N 33°45' W 142°57'0 0.0
2018-Jan-11 19:00N 33°45' W 142°57'1 0.8
2018-Jan-11 18:00N 33°44' W 142°58'1 1.3
2018-Jan-11 17:00N 33°43' W 142°58'1 0.8
2018-Jan-11 16:00N 33°44' W 142°58'1 0.8
2018-Jan-11 15:00N 33°43' W 142°58'0 0.0
2018-Jan-11 14:00N 33°43' W 142°58'1 1.3
2018-Jan-11 13:00N 33°42' W 142°59'2 1.9
2018-Jan-11 12:00N 33°40' W 142°59'2 2.4
2018-Jan-11 11:00N 33°43' W 142°59'2 0.6
2018-Jan-11 07:00N 33°40' W 143°00'1 0.6
2018-Jan-11 06:00N 33°40' W 143°00'1 0.8
2018-Jan-11 05:00N 33°40' W 143°01'1 0.8
2018-Jan-11 04:00N 33°40' W 143°01'0 0.0
2018-Jan-11 03:00N 33°40' W 143°01'2 1.0
2018-Jan-11 01:00N 33°38' W 143°03'0 0.0
2018-Jan-11 00:00N 33°38' W 143°03'0 0.0
2018-Jan-10 23:00N 33°38' W 143°03'3 1.0
2018-Jan-10 20:00N 33°36' W 143°05'0 0.0
2018-Jan-10 19:00N 33°36' W 143°05'1 0.8
2018-Jan-10 18:00N 33°35' W 143°06'1 1.2
2018-Jan-10 17:00N 33°35' W 143°07'1 1.5
2018-Jan-10 16:00N 33°35' W 143°09'0 0.0
2018-Jan-10 15:00N 33°35' W 143°09'2 1.6
2018-Jan-10 14:00N 33°34' W 143°10'0 0.0
2018-Jan-10 13:00N 33°34' W 143°10'5 4.6
2018-Jan-10 12:00N 33°31' W 143°14'0 0.0
2018-Jan-10 08:00N 33°31' W 143°14'0 0.0
2018-Jan-10 07:00N 33°31' W 143°14'  
Track history (hours):
 
Tides and Currents Weather Stations Pressure Air Temp Water Temp Dewpoint Dewpoint Depression Visibility Wind Speed Wind Dir Waves Ship Positions

Liao Sui Yu 46566

Last reported at 2018-Jan-20 07:00 UTC. Time now 2018-Jan-20 09:00 UTC.
Position N 33°59' W 140°54'.

Length 30 m.

Type: Fishing. MMSI: 412052352.

Date/timePositionNaut miles runAvg speedWind from/ knotsBaromVisibWave heightAir tempDewpointWater temp
2018-Jan-20 07:00N 33°59' W 140°54'1 0.6
2018-Jan-20 06:00N 34°00' W 140°54'0 0.0
2018-Jan-20 05:00N 34°00' W 140°54'1 0.6
2018-Jan-20 04:00N 34°01' W 140°54'0 0.5
2018-Jan-20 03:00N 34°01' W 140°53'0 0.0
2018-Jan-20 02:00N 34°01' W 140°53'0 0.0
2018-Jan-20 01:00N 34°01' W 140°53'1 0.6
2018-Jan-20 00:00N 34°01' W 140°53'0 0.0
2018-Jan-19 23:00N 34°01' W 140°53'1 0.4
2018-Jan-19 20:00N 34°02' W 140°53'0 0.0
2018-Jan-19 19:00N 34°02' W 140°53'1 1.2
2018-Jan-19 18:00N 34°03' W 140°52'1 0.6
2018-Jan-19 17:00N 34°04' W 140°52'0 0.0
2018-Jan-19 16:00N 34°04' W 140°52'0 0.5
2018-Jan-19 15:00N 34°04' W 140°51'1 1.2
2018-Jan-19 14:00N 34°05' W 140°51'1 1.2
2018-Jan-19 13:00N 34°06' W 140°51'4 4.3
2018-Jan-19 12:00N 34°10' W 140°52'0 0.0
2018-Jan-19 07:00N 34°10' W 140°52'1 1.2
2018-Jan-19 06:00N 34°11' W 140°52'2 1.0
2018-Jan-19 04:00N 34°13' W 140°53'1 0.8
2018-Jan-19 03:00N 34°14' W 140°54'2 1.6
2018-Jan-19 02:00N 34°15' W 140°55'2 2.1
2018-Jan-19 01:00N 34°16' W 140°58'0 0.0
2018-Jan-19 00:00N 34°16' W 140°58'0 0.0
2018-Jan-18 23:00N 34°16' W 140°58'2 0.8
2018-Jan-18 20:00N 34°17' W 141°00'1 1.2
2018-Jan-18 19:00N 34°18' W 141°00'0 0.0
2018-Jan-18 18:00N 34°18' W 141°00'2 0.8
2018-Jan-18 16:00N 34°19' W 141°02'1 1.2
2018-Jan-18 15:00N 34°20' W 141°02'0 0.5
2018-Jan-18 14:00N 34°20' W 141°02'2 1.6
2018-Jan-18 13:00N 34°21' W 141°04'5 4.6
2018-Jan-18 12:00N 34°23' W 141°08'1 0.3
2018-Jan-18 07:00N 34°25' W 141°08'1 0.8
2018-Jan-18 06:00N 34°25' W 141°08'2 1.6
2018-Jan-18 05:00N 34°26' W 141°10'2 1.9
2018-Jan-18 04:00N 34°27' W 141°12'1 0.8
2018-Jan-18 03:00N 34°28' W 141°13'4 4.0
2018-Jan-18 02:00N 34°28' W 141°17'0 0.0
2018-Jan-18 01:00N 34°28' W 141°17'4 4.5
2018-Jan-18 00:00N 34°28' W 141°23'0 0.0
2018-Jan-17 23:00N 34°28' W 141°23'1 0.3
2018-Jan-17 19:00N 34°26' W 141°23'1 0.8
2018-Jan-17 18:00N 34°27' W 141°23'1 0.8
2018-Jan-17 17:00N 34°26' W 141°24'1 0.8
2018-Jan-17 16:00N 34°27' W 141°25'0 0.0
2018-Jan-17 15:00N 34°27' W 141°25'1 0.8
2018-Jan-17 14:00N 34°28' W 141°24'1010.3
2018-Jan-17 13:00N 34°32' W 141°35'8 8.0
2018-Jan-17 12:00N 34°29' W 141°26'8 1.6
2018-Jan-17 07:00N 34°32' W 141°35'2 2.5
2018-Jan-17 06:00N 34°32' W 141°38'1 0.8
2018-Jan-17 05:00N 34°31' W 141°39'1 1.5
2018-Jan-17 04:00N 34°31' W 141°41'2 2.3
2018-Jan-17 03:00N 34°29' W 141°43'1 0.6
2018-Jan-17 02:00N 34°30' W 141°43'6 2.9
2018-Jan-17 00:00N 34°26' W 141°48'0 0.0
2018-Jan-16 20:00N 34°26' W 141°48'12 0.9
2018-Jan-16 07:00N 34°18' W 141°58'0 0.0
2018-Jan-16 06:00N 34°18' W 141°58'0 0.0
2018-Jan-16 05:00N 34°18' W 141°58'1 1.0
2018-Jan-16 04:00N 34°18' W 141°59'0 0.0
2018-Jan-16 03:00N 34°18' W 141°59'3 2.5
2018-Jan-16 02:00N 34°19' W 142°02'0 0.0
2018-Jan-16 00:00N 34°19' W 142°02'3 3.5
2018-Jan-15 23:00N 34°17' W 142°05'1 0.3
2018-Jan-15 20:00N 34°16' W 142°06'1 0.3
2018-Jan-15 16:00N 34°16' W 142°07'0 0.5
2018-Jan-15 15:00N 34°16' W 142°08'0 0.0
2018-Jan-15 14:00N 34°16' W 142°08'6 6.0
2018-Jan-15 13:00N 34°18' W 142°14'4 3.9
2018-Jan-15 12:00N 34°16' W 142°10'4 0.7
2018-Jan-15 06:00N 34°18' W 142°15'2 1.6
2018-Jan-15 05:00N 34°19' W 142°17'0 0.0
2018-Jan-15 04:00N 34°19' W 142°17'1 0.8
2018-Jan-15 03:00N 34°19' W 142°17'1 1.5
2018-Jan-15 02:00N 34°19' W 142°19'0 0.0
2018-Jan-15 01:00N 34°19' W 142°19'2 2.1
2018-Jan-15 00:00N 34°20' W 142°22'0 0.0
2018-Jan-14 23:00N 34°20' W 142°22'1 1.5
2018-Jan-14 22:00N 34°20' W 142°23'1 0.4
2018-Jan-14 20:00N 34°19' W 142°24'0 0.0
2018-Jan-14 19:00N 34°19' W 142°24'1 1.2
2018-Jan-14 18:00N 34°20' W 142°23'3 3.1
2018-Jan-14 17:00N 34°18' W 142°26'1 1.2
2018-Jan-14 16:00N 34°17' W 142°27'0 0.0
2018-Jan-14 15:00N 34°17' W 142°27'0 0.5
2018-Jan-14 14:00N 34°17' W 142°28'6 6.2
2018-Jan-14 13:00N 34°14' W 142°34'0 0.0
2018-Jan-14 12:00N 34°14' W 142°34'0 0.0
2018-Jan-14 07:00N 34°14' W 142°34'1 1.2
2018-Jan-14 06:00N 34°14' W 142°35'1 1.2
2018-Jan-14 05:00N 34°13' W 142°37'0 0.0
2018-Jan-14 04:00N 34°13' W 142°37'0 0.0
2018-Jan-14 03:00N 34°13' W 142°37'1 0.8
2018-Jan-14 02:00N 34°13' W 142°37'0 0.0
2018-Jan-14 01:00N 34°13' W 142°37'1 0.8
2018-Jan-14 00:00N 34°13' W 142°38'0 0.0
2018-Jan-13 23:00N 34°13' W 142°38'22 0.7
2018-Jan-12 15:00N 33°55' W 142°52'2 1.8
2018-Jan-12 14:00N 33°53' W 142°52'0 0.0
2018-Jan-12 13:00N 33°53' W 142°52'2 1.9
2018-Jan-12 12:00N 33°52' W 142°53'0 0.0
2018-Jan-12 11:00N 33°52' W 142°53'0 0.0
2018-Jan-12 08:00N 33°52' W 142°53'0 0.5
2018-Jan-12 07:00N 33°52' W 142°54'1 0.8
2018-Jan-12 06:00N 33°51' W 142°55'1 0.8
2018-Jan-12 05:00N 33°50' W 142°55'1 0.8
2018-Jan-12 04:00N 33°50' W 142°56'1 1.3
2018-Jan-12 03:00N 33°49' W 142°55'1 1.2
2018-Jan-12 02:00N 33°48' W 142°56'0 0.0
2018-Jan-12 01:00N 33°48' W 142°56'1 1.2
2018-Jan-12 00:00N 33°47' W 142°56'0 0.0
2018-Jan-11 23:00N 33°47' W 142°56'2 0.6
2018-Jan-11 20:00N 33°45' W 142°57'0 0.0
2018-Jan-11 19:00N 33°45' W 142°57'1 0.8
2018-Jan-11 18:00N 33°44' W 142°58'1 1.3
2018-Jan-11 17:00N 33°43' W 142°58'1 0.8
2018-Jan-11 16:00N 33°44' W 142°58'1 0.8
2018-Jan-11 15:00N 33°43' W 142°58'0 0.0
2018-Jan-11 14:00N 33°43' W 142°58'1 1.3
2018-Jan-11 13:00N 33°42' W 142°59'2 1.9
2018-Jan-11 12:00N 33°40' W 142°59'2 2.4
2018-Jan-11 11:00N 33°43' W 142°59'2 0.6
2018-Jan-11 07:00N 33°40' W 143°00'1 0.6
2018-Jan-11 06:00N 33°40' W 143°00'1 0.8
2018-Jan-11 05:00N 33°40' W 143°01'1 0.8
2018-Jan-11 04:00N 33°40' W 143°01'0 0.0
2018-Jan-11 03:00N 33°40' W 143°01'2 1.0
2018-Jan-11 01:00N 33°38' W 143°03'0 0.0
2018-Jan-11 00:00N 33°38' W 143°03'0 0.0
2018-Jan-10 23:00N 33°38' W 143°03'3 1.0
2018-Jan-10 20:00N 33°36' W 143°05'0 0.0
2018-Jan-10 19:00N 33°36' W 143°05'1 0.8
2018-Jan-10 18:00N 33°35' W 143°06'1 1.2
2018-Jan-10 17:00N 33°35' W 143°07'1 1.5
2018-Jan-10 16:00N 33°35' W 143°09'0 0.0
2018-Jan-10 15:00N 33°35' W 143°09'2 1.6
2018-Jan-10 14:00N 33°34' W 143°10'0 0.0
2018-Jan-10 13:00N 33°34' W 143°10'5 4.6
2018-Jan-10 12:00N 33°31' W 143°14'0 0.0
2018-Jan-10 08:00N 33°31' W 143°14'0 0.0
2018-Jan-10 07:00N 33°31' W 143°14'  

Dump ship's entire track history